Time;durP1;ratioP1;P1;durP2;ratioP2;P2;SDS_P1;SDS_P2;PMS_P1;PMS_P2;Temp;Humidity;BMP_temperature;BMP_pressure;BME280_temperature;BME280_humidity;BME280_pressure;Samples;Min_cycle;Max_cycle;Signal;HPM_P1;HPM_P2
2022/03/20 00:01:02;;;;;;;33.05;20.60;;;4.40;16.90;;;;;;4998518;28;20247;-78
2022/03/20 00:03:30;;;;;;;27.45;20.65;;;4.50;1.00;;;;;;4998953;28;20197;-78
2022/03/20 00:05:57;;;;;;;33.58;21.70;;;4.50;1.00;;;;;;5002433;28;20205;-78
2022/03/20 00:08:25;;;;;;;31.52;19.40;;;4.40;1.00;;;;;;5002153;28;20252;-78
2022/03/20 00:10:54;;;;;;;29.40;19.15;;;4.40;99.90;;;;;;4999579;28;20656;-78
2022/03/20 00:13:22;;;;;;;27.25;20.75;;;4.40;1.00;;;;;;4999708;28;20328;-78
2022/03/20 00:15:50;;;;;;;31.08;21.27;;;4.40;1.00;;;;;;5000146;28;20684;-78
2022/03/20 00:18:20;;;;;;;35.25;21.65;;;4.30;1.00;;;;;;4998576;28;20201;-78
2022/03/20 00:20:49;;;;;;;31.95;20.52;;;4.30;1.00;;;;;;4999856;28;20209;-78
2022/03/20 00:23:17;;;;;;;32.60;21.50;;;4.30;1.00;;;;;;4999506;28;20676;-78
2022/03/20 00:25:46;;;;;;;28.55;19.92;;;4.20;1.00;;;;;;4998509;28;20653;-78
2022/03/20 00:28:15;;;;;;;32.47;22.25;;;4.30;1.00;;;;;;5000221;28;20359;-78
2022/03/20 00:30:43;;;;;;;28.98;21.17;;;4.20;1.00;;;;;;4999000;28;20225;-78
2022/03/20 00:33:10;;;;;;;27.77;20.63;;;4.20;1.00;;;;;;4998089;28;20244;-78
2022/03/20 00:35:37;;;;;;;32.83;21.95;;;4.10;99.90;;;;;;4996640;28;20263;-77
2022/03/20 00:38:04;;;;;;;30.38;20.50;;;4.10;27.10;;;;;;4997335;28;20196;-78
2022/03/20 00:40:30;;;;;;;28.83;18.90;;;4.10;99.90;;;;;;4996980;28;20279;-78
2022/03/20 00:42:58;;;;;;;25.48;19.30;;;4.10;99.90;;;;;;4997117;28;20297;-76
2022/03/20 00:45:26;;;;;;;27.85;19.92;;;4.10;1.00;;;;;;5000708;28;20205;-78
2022/03/20 00:47:53;;;;;;;30.40;19.38;;;3.90;99.90;;;;;;4997274;28;20242;-78
2022/03/20 00:50:19;;;;;;;32.95;19.48;;;4.10;99.90;;;;;;4996563;28;20265;-78
2022/03/20 00:52:46;;;;;;;31.60;20.10;;;4.20;99.90;;;;;;4997174;28;20205;-77
2022/03/20 00:55:12;;;;;;;25.08;19.10;;;4.20;99.90;;;;;;4997435;28;20233;-78
2022/03/20 00:57:39;;;;;;;26.65;19.27;;;4.20;99.90;;;;;;4995997;28;20259;-77
2022/03/20 01:00:09;;;;;;;30.35;19.27;;;4.10;1.00;;;;;;4995715;28;20232;-77
2022/03/20 01:02:38;;;;;;;30.27;19.40;;;4.10;1.00;;;;;;4999193;28;20244;-78
2022/03/20 01:05:06;;;;;;;28.45;18.40;;;4.00;99.90;;;;;;5006468;28;20205;-77
2022/03/20 01:07:33;;;;;;;29.23;18.75;;;4.10;1.00;;;;;;5003561;28;20205;-79
2022/03/20 01:10:01;;;;;;;30.65;19.27;;;4.00;99.90;;;;;;4998527;28;20260;-78
2022/03/20 01:12:28;;;;;;;30.05;19.48;;;4.00;1.00;;;;;;5001548;28;20223;-78
2022/03/20 01:14:54;;;;;;;33.65;20.52;;;4.00;99.90;;;;;;5009718;28;20212;-78
2022/03/20 01:17:23;;;;;;;33.40;20.77;;;4.00;99.90;;;;;;5010242;28;20201;-77
2022/03/20 01:19:50;;;;;;;27.33;18.48;;;4.00;99.90;;;;;;5010093;28;20252;-78
2022/03/20 01:22:16;;;;;;;29.75;19.85;;;4.00;6.40;;;;;;5010434;28;20205;-77
2022/03/20 01:24:43;;;;;;;33.90;19.27;;;3.90;99.90;;;;;;5008622;28;20219;-78
2022/03/20 01:27:12;;;;;;;32.38;21.40;;;3.90;99.90;;;;;;5005210;28;20201;-77
2022/03/20 01:29:38;;;;;;;23.42;16.95;;;3.90;1.00;;;;;;4998186;28;20237;-77
2022/03/20 01:32:06;;;;;;;31.77;18.50;;;3.90;99.90;;;;;;4997584;28;20208;-77
2022/03/20 01:34:34;;;;;;;25.83;18.65;;;3.90;40.10;;;;;;4995812;28;20683;-77
2022/03/20 01:37:00;;;;;;;28.40;18.25;;;3.80;99.90;;;;;;4996261;28;20702;-77
2022/03/20 01:39:27;;;;;;;28.65;19.65;;;3.80;1.00;;;;;;4995317;28;20221;-78
2022/03/20 01:41:53;;;;;;;28.70;18.90;;;3.80;1.00;;;;;;4995317;28;20231;-77
2022/03/20 01:44:20;;;;;;;30.08;18.05;;;3.80;99.90;;;;;;4995642;28;20224;-77
2022/03/20 01:46:46;;;;;;;32.22;18.52;;;3.70;99.90;;;;;;4996454;28;20205;-78
2022/03/20 01:49:13;;;;;;;32.28;21.00;;;3.60;1.00;;;;;;4996772;28;20260;-77
2022/03/20 01:54:26;;;;;;;31.35;18.98;;;3.70;36.00;;;;;;5000426;28;20560;-78
2022/03/20 01:56:53;;;;;;;25.80;18.90;;;3.60;99.90;;;;;;5004568;28;20684;-78
2022/03/20 01:59:19;;;;;;;32.38;18.27;;;3.70;7.10;;;;;;5003596;28;20225;-77
2022/03/20 02:01:46;;;;;;;32.03;19.33;;;3.60;99.90;;;;;;4994276;28;20213;-78
2022/03/20 02:04:14;;;;;;;26.85;17.40;;;3.60;1.00;;;;;;4994738;28;20240;-78
2022/03/20 02:06:43;;;;;;;27.23;18.85;;;3.60;99.90;;;;;;4994928;28;20205;-78
2022/03/20 02:09:10;;;;;;;27.60;18.20;;;3.50;99.90;;;;;;5002946;28;20668;-78
2022/03/20 02:11:37;;;;;;;29.00;17.67;;;3.50;1.00;;;;;;5000019;28;20209;-78
2022/03/20 02:14:05;;;;;;;28.73;20.10;;;3.50;99.90;;;;;;4996686;28;20229;-77
2022/03/20 02:16:32;;;;;;;29.77;19.30;;;3.50;99.90;;;;;;4996687;28;20232;-78
2022/03/20 02:18:59;;;;;;;25.77;17.90;;;3.40;99.90;;;;;;4995592;28;20244;-78
2022/03/20 02:21:41;;;;;;;25.45;18.80;;;3.40;99.90;;;;;;4996109;28;20576;-78
2022/03/20 02:24:33;;;;;;;25.67;17.88;;;3.40;99.90;;;;;;4997013;28;20201;-78
2022/03/20 02:27:04;;;;;;;26.85;18.73;;;3.30;99.90;;;;;;4995734;28;20223;-77
2022/03/20 02:29:31;;;;;;;27.10;18.70;;;3.20;1.00;;;;;;4994787;28;20260;-77
2022/03/20 02:31:59;;;;;;;25.70;18.23;;;3.20;1.00;;;;;;4994383;28;20255;-77
2022/03/20 02:34:26;;;;;;;33.05;18.35;;;3.20;1.00;;;;;;4994276;28;20201;-78
2022/03/20 02:36:55;;;;;;;27.52;19.17;;;3.10;1.00;;;;;;4998689;28;20208;-77
2022/03/20 02:39:21;;;;;;;25.58;17.88;;;3.20;1.00;;;;;;4998183;28;20217;-79
2022/03/20 02:41:49;;;;;;;33.60;18.95;;;3.10;1.00;;;;;;4996836;28;20209;-79
2022/03/20 02:44:15;;;;;;;26.15;17.95;;;3.10;1.00;;;;;;4997813;28;20297;-78
2022/03/20 02:46:45;;;;;;;27.20;19.20;;;3.10;1.00;;;;;;4997939;28;20720;-79
2022/03/20 02:49:15;;;;;;;28.60;19.05;;;3.20;1.00;;;;;;4995535;28;20546;-77
2022/03/20 02:51:42;;;;;;;24.85;19.08;;;3.10;1.00;;;;;;4996374;28;20673;-77
2022/03/20 02:54:10;;;;;;;30.17;19.95;;;3.10;1.00;;;;;;4997865;28;20611;-77
2022/03/20 02:56:37;;;;;;;27.80;17.83;;;2.90;1.00;;;;;;4997550;28;20207;-77
2022/03/20 02:59:05;;;;;;;29.23;19.92;;;3.10;1.00;;;;;;4996512;28;20606;-77
2022/03/20 03:01:31;;;;;;;30.33;18.20;;;2.90;1.00;;;;;;4997139;28;20209;-77
2022/03/20 03:03:58;;;;;;;27.20;17.67;;;3.10;99.90;;;;;;4997589;28;20273;-77
2022/03/20 03:06:25;;;;;;;31.38;19.60;;;2.90;1.00;;;;;;5000206;28;20579;-77
2022/03/20 03:11:39;;;;;;;34.40;19.35;;;3.00;1.00;;;;;;4987770;28;20200;-77
2022/03/20 03:15:18;;;;;;;40.50;20.25;;;2.90;1.00;;;;;;5002206;28;20212;-77
2022/03/20 03:16:53;;;;;;;29.58;18.77;;;2.90;1.00;;;;;;5004358;28;20205;-78
2022/03/20 03:19:19;;;;;;;33.05;19.67;;;2.80;1.00;;;;;;5000234;28;20221;-77
2022/03/20 03:21:46;;;;;;;24.90;17.55;;;2.90;1.00;;;;;;4999657;28;20259;-77
2022/03/20 03:24:12;;;;;;;27.70;18.35;;;2.80;1.00;;;;;;4998798;28;20768;-77
2022/03/20 03:26:41;;;;;;;31.00;19.27;;;2.80;1.00;;;;;;4998292;28;20347;-78
2022/03/20 03:29:07;;;;;;;30.23;20.55;;;2.50;1.00;;;;;;4997458;28;20320;-77
2022/03/20 03:31:34;;;;;;;29.38;21.23;;;2.80;1.00;;;;;;4997479;28;20240;-79
2022/03/20 03:36:45;;;;;;;29.65;19.35;;;2.70;1.00;;;;;;4999526;28;20203;-77
2022/03/20 03:39:12;;;;;;;31.10;19.52;;;2.80;1.00;;;;;;4998258;28;20244;-78
2022/03/20 03:41:40;;;;;;;23.67;18.40;;;2.80;1.00;;;;;;4996563;28;20635;-78
2022/03/20 03:44:07;;;;;;;25.65;19.42;;;2.80;1.00;;;;;;4996402;28;20236;-78
2022/03/20 03:46:34;;;;;;;28.65;18.70;;;2.80;1.00;;;;;;4995826;28;20230;-77
2022/03/20 03:49:00;;;;;;;30.52;18.67;;;2.70;1.00;;;;;;4996192;28;20232;-78
2022/03/20 03:51:27;;;;;;;32.45;20.00;;;2.70;1.00;;;;;;4996380;28;20583;-78
2022/03/20 03:53:53;;;;;;;27.85;19.20;;;3.30;1.00;;;;;;4995551;28;20287;-77
2022/03/20 03:56:20;;;;;;;30.45;19.17;;;2.60;1.00;;;;;;4998038;28;20205;-77
2022/03/20 03:58:48;;;;;;;26.95;18.83;;;2.60;1.00;;;;;;4998783;28;20229;-77
2022/03/20 04:01:14;;;;;;;27.02;18.55;;;2.80;1.00;;;;;;4996848;28;20284;-77
2022/03/20 04:03:41;;;;;;;28.98;18.23;;;2.50;1.00;;;;;;4996480;28;20232;-77
2022/03/20 04:06:09;;;;;;;31.08;19.67;;;2.60;1.00;;;;;;4995592;28;20291;-77
2022/03/20 04:08:36;;;;;;;28.23;18.70;;;2.60;1.00;;;;;;4996123;28;20607;-78
2022/03/20 04:11:04;;;;;;;31.60;19.85;;;2.50;1.00;;;;;;4995543;28;20225;-78
2022/03/20 04:13:31;;;;;;;26.85;18.13;;;2.50;1.00;;;;;;4995533;28;20237;-77
2022/03/20 04:15:58;;;;;;;30.42;18.85;;;2.50;1.00;;;;;;4995877;28;20324;-77
2022/03/20 04:18:25;;;;;;;29.13;19.40;;;2.40;1.00;;;;;;4997436;28;20296;-75
2022/03/20 04:20:52;;;;;;;28.17;17.95;;;2.40;1.00;;;;;;4998787;28;20213;-77
2022/03/20 04:26:03;;;;;;;24.60;18.85;;;2.30;1.00;;;;;;4995745;28;20235;-77
2022/03/20 04:28:29;;;;;;;27.98;17.67;;;2.30;99.90;;;;;;4995857;28;20209;-77
2022/03/20 04:30:56;;;;;;;34.50;18.73;;;2.50;1.00;;;;;;4995451;28;20229;-76
2022/03/20 04:33:25;;;;;;;29.33;21.13;;;2.40;1.00;;;;;;4995444;28;20341;-77
2022/03/20 04:35:52;;;;;;;28.88;19.02;;;2.50;1.00;;;;;;4995441;28;20207;-77
2022/03/20 04:38:21;;;;;;;33.63;20.08;;;2.20;1.00;;;;;;4996369;28;20205;-77
2022/03/20 04:40:47;;;;;;;32.22;19.33;;;2.30;1.00;;;;;;4996402;28;20201;-77
2022/03/20 04:43:15;;;;;;;26.02;17.67;;;2.20;1.00;;;;;;4998267;28;20216;-77
2022/03/20 04:45:41;;;;;;;30.15;17.40;;;2.10;1.00;;;;;;4995737;28;20212;-77
2022/03/20 04:59:05;;;;;;;36.60;20.23;;;1.90;99.90;;;;;;5019247;23;20251;-80
2022/03/20 05:01:32;;;;;;;32.78;20.13;;;1.90;99.90;;;;;;4996661;28;20607;-78
2022/03/20 05:03:59;;;;;;;31.23;18.38;;;1.90;99.90;;;;;;4997312;28;20213;-77
2022/03/20 05:06:27;;;;;;;30.77;20.27;;;2.00;99.90;;;;;;4995991;28;20676;-77
2022/03/20 05:08:53;;;;;;;30.75;17.73;;;1.70;1.00;;;;;;4997138;28;20718;-77
2022/03/20 05:14:04;;;;;;;27.48;17.95;;;1.80;99.90;;;;;;4997772;28;20188;-78
2022/03/20 05:16:30;;;;;;;26.20;19.30;;;1.80;99.90;;;;;;4999069;28;20232;-77
2022/03/20 05:18:57;;;;;;;27.73;19.60;;;2.00;1.00;;;;;;4997881;28;20598;-78
2022/03/20 05:21:24;;;;;;;34.60;19.80;;;1.80;1.00;;;;;;4996503;28;20259;-79
2022/03/20 05:23:52;;;;;;;28.23;18.42;;;1.80;1.00;;;;;;4997713;28;20269;-78
2022/03/20 05:26:19;;;;;;;28.40;19.08;;;1.80;1.00;;;;;;4995802;28;20213;-78
2022/03/20 05:28:45;;;;;;;28.38;18.50;;;1.50;1.00;;;;;;4996251;28;20247;-78
2022/03/20 05:31:12;;;;;;;30.30;20.23;;;1.70;1.00;;;;;;4995920;28;20312;-78
2022/03/20 05:33:39;;;;;;;32.25;19.90;;;1.70;1.00;;;;;;4994982;28;20217;-78
2022/03/20 05:36:06;;;;;;;30.75;20.00;;;1.70;1.00;;;;;;4995252;28;20212;-79
2022/03/20 05:38:32;;;;;;;28.98;19.23;;;1.80;99.90;;;;;;4995524;28;20243;-78
2022/03/20 05:43:41;;;;;;;33.00;20.30;;;1.70;1.00;;;;;;4996255;28;20205;-79
2022/03/20 05:46:08;;;;;;;28.52;19.77;;;1.70;99.90;;;;;;4996301;28;20228;-78
2022/03/20 05:48:35;;;;;;;33.97;20.98;;;1.80;1.00;;;;;;4995531;28;20228;-77
2022/03/20 05:51:02;;;;;;;28.65;19.63;;;1.70;99.90;;;;;;4995305;28;20712;-78
2022/03/20 05:53:29;;;;;;;26.48;20.15;;;1.70;1.00;;;;;;4997643;28;20259;-80
2022/03/20 05:58:42;;;;;;;30.27;17.95;;;1.70;1.00;;;;;;4994930;28;20192;-77
2022/03/20 06:01:09;;;;;;;31.98;20.65;;;1.60;99.90;;;;;;4995118;28;20205;-77
2022/03/20 06:03:36;;;;;;;34.85;20.30;;;1.60;99.90;;;;;;4994894;28;20628;-78
2022/03/20 06:06:02;;;;;;;30.45;20.15;;;1.70;1.00;;;;;;4994655;28;20594;-77
2022/03/20 06:08:29;;;;;;;27.42;18.90;;;1.70;1.00;;;;;;4995006;28;20676;-77
2022/03/20 06:10:56;;;;;;;28.35;19.13;;;1.70;1.00;;;;;;4995965;28;20287;-77
2022/03/20 06:13:22;;;;;;;29.45;20.10;;;1.90;1.00;;;;;;4997688;28;20801;-79
2022/03/20 06:15:50;;;;;;;26.77;18.83;;;1.90;1.00;;;;;;5004978;28;20220;-77
2022/03/20 06:18:17;;;;;;;31.73;20.08;;;1.90;1.00;;;;;;5002167;28;20639;-78
2022/03/20 06:20:45;;;;;;;26.92;19.95;;;1.90;1.00;;;;;;4996849;28;20225;-78
2022/03/20 06:23:12;;;;;;;31.95;19.63;;;2.10;1.00;;;;;;4996854;28;20244;-78
2022/03/20 06:25:38;;;;;;;37.80;21.15;;;2.00;1.00;;;;;;5000362;28;20638;-77
2022/03/20 06:28:05;;;;;;;26.65;18.52;;;2.00;1.00;;;;;;5004841;28;20684;-77
2022/03/20 06:30:34;;;;;;;27.70;19.67;;;2.10;1.00;;;;;;5002495;28;20747;-77
2022/03/20 06:33:02;;;;;;;32.47;18.77;;;2.10;1.00;;;;;;4999942;28;20208;-77
2022/03/20 06:35:29;;;;;;;31.05;18.92;;;2.20;1.00;;;;;;5002314;28;20205;-77
2022/03/20 06:37:56;;;;;;;30.75;19.55;;;2.20;1.00;;;;;;5003657;28;20205;-76
2022/03/20 06:40:23;;;;;;;28.60;18.90;;;2.30;1.00;;;;;;4995939;28;20256;-77
2022/03/20 06:42:50;;;;;;;29.77;18.98;;;2.40;1.00;;;;;;4995824;28;20676;-77
2022/03/20 06:45:18;;;;;;;30.52;19.80;;;2.40;1.00;;;;;;4998118;28;20247;-77
2022/03/20 06:47:44;;;;;;;30.75;18.60;;;2.50;2.50;;;;;;4998544;28;20213;-77
2022/03/20 06:50:14;;;;;;;30.70;19.90;;;2.60;99.90;;;;;;5006915;28;20225;-77
2022/03/20 06:52:41;;;;;;;26.17;19.88;;;2.60;99.90;;;;;;5008049;28;20275;-77
2022/03/20 06:55:12;;;;;;;29.60;19.08;;;2.70;1.00;;;;;;5005647;28;20625;-77
2022/03/20 06:57:41;;;;;;;27.42;17.90;;;2.80;99.90;;;;;;5009093;28;20197;-78
2022/03/20 07:00:10;;;;;;;25.83;18.20;;;2.90;1.00;;;;;;5009821;28;20236;-78
2022/03/20 07:02:36;;;;;;;25.75;19.15;;;2.90;1.00;;;;;;5009710;28;20231;-78
2022/03/20 07:05:04;;;;;;;27.00;19.05;;;3.00;1.00;;;;;;5018836;28;20197;-79
2022/03/20 07:07:34;;;;;;;31.75;20.98;;;3.10;1.00;;;;;;5019277;28;20591;-78
2022/03/20 07:10:01;;;;;;;28.52;19.15;;;3.20;99.90;;;;;;5018313;28;20233;-77
2022/03/20 07:12:27;;;;;;;34.67;20.42;;;3.30;99.90;;;;;;5016957;28;20208;-78
2022/03/20 07:14:54;;;;;;;33.42;18.98;;;3.30;99.90;;;;;;5012504;28;20209;-78
2022/03/20 07:17:24;;;;;;;33.28;20.85;;;3.40;99.90;;;;;;5011233;28;20233;-78
2022/03/20 07:19:51;;;;;;;31.52;19.83;;;3.40;99.90;;;;;;5008913;28;20232;-78
2022/03/20 07:22:19;;;;;;;27.92;19.40;;;3.50;1.00;;;;;;5005931;28;20277;-78
2022/03/20 07:24:47;;;;;;;28.52;19.38;;;3.50;99.90;;;;;;5004891;28;20271;-78
2022/03/20 07:29:58;;;;;;;30.02;18.85;;;3.50;99.90;;;;;;4999497;28;20298;-78
2022/03/20 07:32:25;;;;;;;31.92;21.65;;;3.60;99.90;;;;;;4999057;28;20232;-78
2022/03/20 07:34:53;;;;;;;33.08;20.65;;;3.70;99.90;;;;;;4999030;28;20267;-78
2022/03/20 07:37:20;;;;;;;31.08;20.23;;;3.80;99.90;;;;;;4999318;28;20209;-78
2022/03/20 07:39:50;;;;;;;27.25;19.13;;;3.90;1.00;;;;;;5001898;28;20225;-78
2022/03/20 07:42:18;;;;;;;28.77;20.20;;;3.90;99.90;;;;;;5002511;28;20247;-78
2022/03/20 07:44:46;;;;;;;28.70;18.20;;;3.90;99.90;;;;;;4998766;28;20299;-78
2022/03/20 07:47:18;;;;;;;28.05;19.38;;;3.90;99.90;;;;;;4997721;28;20631;-78
2022/03/20 07:49:45;;;;;;;28.92;20.77;;;4.00;99.90;;;;;;4998065;28;20228;-79
2022/03/20 07:52:12;;;;;;;29.73;19.70;;;4.00;99.90;;;;;;4998160;28;20203;-79
2022/03/20 07:54:38;;;;;;;37.03;19.67;;;4.10;99.90;;;;;;4997671;28;20236;-77
2022/03/20 07:57:08;;;;;;;24.27;17.85;;;4.20;99.90;;;;;;4998216;28;20263;-79
2022/03/20 07:59:35;;;;;;;27.48;19.75;;;4.20;99.90;;;;;;4997755;28;20237;-79
2022/03/20 08:02:02;;;;;;;32.00;19.98;;;4.30;99.90;;;;;;4998220;28;20212;-79
2022/03/20 08:04:28;;;;;;;30.73;19.35;;;4.30;99.90;;;;;;4997848;28;20207;-79
2022/03/20 08:06:55;;;;;;;30.92;18.77;;;4.30;99.90;;;;;;4998013;28;20217;-79
2022/03/20 08:09:22;;;;;;;28.02;18.08;;;4.50;99.90;;;;;;4997557;28;20225;-80
2022/03/20 08:11:48;;;;;;;29.42;19.02;;;4.60;99.90;;;;;;4998867;28;20228;-79
2022/03/20 08:14:16;;;;;;;31.73;18.73;;;4.70;99.90;;;;;;4997034;28;20213;-79
2022/03/20 08:16:43;;;;;;;26.92;18.02;;;4.80;99.90;;;;;;4996957;28;20263;-79
2022/03/20 08:19:11;;;;;;;29.10;18.38;;;4.80;99.90;;;;;;4997375;28;20263;-79
2022/03/20 08:21:39;;;;;;;30.23;19.63;;;4.80;99.90;;;;;;4997016;28;20231;-78
2022/03/20 08:24:07;;;;;;;34.85;20.10;;;5.20;1.00;;;;;;4998988;28;20300;-78
2022/03/20 08:26:34;;;;;;;30.05;20.80;;;5.00;99.90;;;;;;4998129;28;20568;-78
2022/03/20 08:29:01;;;;;;;31.67;19.65;;;5.10;99.90;;;;;;4999304;28;20295;-78
2022/03/20 08:31:34;;;;;;;33.70;21.30;;;5.20;99.90;;;;;;4998290;28;20217;-79
2022/03/20 08:34:01;;;;;;;31.00;20.15;;;5.30;99.90;;;;;;4998583;28;20197;-78
2022/03/20 08:36:28;;;;;;;34.22;19.33;;;5.30;99.90;;;;;;4998739;28;20205;-79
2022/03/20 08:38:54;;;;;;;29.08;20.40;;;5.50;1.00;;;;;;4999828;28;20221;-79
2022/03/20 08:41:21;;;;;;;32.10;20.00;;;5.50;99.90;;;;;;5000164;28;20232;-80
2022/03/20 08:43:48;;;;;;;29.30;20.20;;;5.70;99.90;;;;;;5001375;28;20216;-79
2022/03/20 08:46:16;;;;;;;30.10;19.75;;;5.70;99.90;;;;;;4999652;28;20606;-78
2022/03/20 08:48:44;;;;;;;31.42;19.27;;;5.90;1.00;;;;;;4997795;28;20201;-79
2022/03/20 08:51:11;;;;;;;30.65;19.35;;;6.00;99.90;;;;;;4997613;28;20225;-79
2022/03/20 08:53:39;;;;;;;26.88;19.65;;;6.10;99.90;;;;;;4999818;28;20579;-78
2022/03/20 08:56:06;;;;;;;28.48;19.98;;;6.10;23.50;;;;;;4998309;28;20295;-79
2022/03/20 08:58:32;;;;;;;29.20;19.55;;;6.30;99.90;;;;;;4996861;28;20208;-79
2022/03/20 09:00:59;;;;;;;26.75;19.75;;;6.40;99.90;;;;;;4998314;28;20240;-78
2022/03/20 09:03:26;;;;;;;31.58;19.00;;;6.60;99.90;;;;;;4999131;28;20236;-78
2022/03/20 09:05:53;;;;;;;28.00;19.58;;;6.60;99.90;;;;;;4995622;28;20579;-79
2022/03/20 09:08:20;;;;;;;28.90;18.75;;;6.60;99.90;;;;;;4995648;28;20299;-79
2022/03/20 09:10:49;;;;;;;32.80;19.02;;;6.70;99.90;;;;;;4996526;28;20220;-79
2022/03/20 09:13:16;;;;;;;32.05;19.10;;;6.80;99.90;;;;;;4996130;28;20201;-78
2022/03/20 09:15:42;;;;;;;30.27;19.27;;;6.80;99.90;;;;;;4996498;28;20212;-79
2022/03/20 09:20:55;;;;;;;29.17;20.13;;;7.00;99.90;;;;;;5004705;28;20211;-79
2022/03/20 09:23:22;;;;;;;25.52;18.63;;;7.20;99.90;;;;;;5006140;28;20209;-80
2022/03/20 09:25:49;;;;;;;27.48;20.50;;;7.30;99.90;;;;;;5000394;28;20214;-78
2022/03/20 09:28:18;;;;;;;28.77;20.00;;;7.40;99.90;;;;;;5000422;28;20212;-79
2022/03/20 09:30:45;;;;;;;30.13;18.60;;;7.40;99.90;;;;;;5000950;28;20264;-79
2022/03/20 09:33:13;;;;;;;31.30;20.67;;;7.70;99.90;;;;;;5003945;28;20200;-79
2022/03/20 09:35:40;;;;;;;28.05;18.95;;;7.70;99.90;;;;;;5003793;28;20209;-79
2022/03/20 09:38:08;;;;;;;25.33;18.17;;;7.70;99.90;;;;;;5002394;28;20201;-79
2022/03/20 09:40:37;;;;;;;27.60;19.87;;;7.80;99.90;;;;;;5002168;28;20230;-79
2022/03/20 09:43:04;;;;;;;25.98;19.00;;;7.70;1.00;;;;;;4999732;28;20407;-79
2022/03/20 09:45:31;;;;;;;27.70;19.63;;;7.90;1.00;;;;;;4999318;28;20200;-80
2022/03/20 09:48:00;;;;;;;34.30;19.92;;;8.10;1.00;;;;;;5000012;28;20196;-80
2022/03/20 09:50:27;;;;;;;25.25;19.38;;;8.30;99.90;;;;;;5013443;28;20700;-79
2022/03/20 09:52:53;;;;;;;22.40;18.40;;;8.60;1.00;;;;;;5006433;28;20529;-79
2022/03/20 09:55:22;;;;;;;28.30;18.83;;;8.30;99.20;;;;;;5014728;28;20220;-79
2022/03/20 09:57:49;;;;;;;25.77;19.73;;;8.80;99.90;;;;;;5014180;28;20431;-79
2022/03/20 10:00:17;;;;;;;26.20;18.67;;;8.80;99.90;;;;;;5003344;28;20724;-80
2022/03/20 10:02:44;;;;;;;28.25;19.45;;;8.60;99.90;;;;;;4998691;28;20460;-80
2022/03/20 10:05:12;;;;;;;30.37;19.50;;;8.60;99.90;;;;;;4998491;28;20558;-81
2022/03/20 10:07:43;;;;;;;27.83;19.17;;;8.60;99.90;;;;;;4999086;28;20798;-79
2022/03/20 10:10:15;;;;;;;29.20;21.10;;;8.70;99.90;;;;;;4998828;28;20525;-81
2022/03/20 10:12:45;;;;;;;31.80;20.27;;;8.70;99.90;;;;;;4998199;28;20497;-80
2022/03/20 10:15:28;;;;;;;27.07;17.73;;;8.70;99.90;;;;;;4998219;28;20472;-79
2022/03/20 10:18:09;;;;;;;27.53;19.90;;;8.50;99.90;;;;;;4998627;28;20438;-80
2022/03/20 10:20:37;;;;;;;24.73;17.77;;;8.90;99.90;;;;;;5002418;28;20812;-81
2022/03/20 10:23:05;;;;;;;25.37;17.87;;;9.00;99.90;;;;;;5002583;28;20520;-80
2022/03/20 10:25:31;;;;;;;27.37;18.40;;;9.20;99.90;;;;;;5002313;28;20433;-80
2022/03/20 10:28:00;;;;;;;27.17;18.47;;;9.30;99.90;;;;;;5001974;28;20456;-81
2022/03/20 10:30:27;;;;;;;23.13;18.27;;;9.30;99.90;;;;;;5002720;28;20476;-80
2022/03/20 10:32:53;;;;;;;26.43;18.60;;;9.20;99.90;;;;;;5002040;28;20872;-80
2022/03/20 10:35:20;;;;;;;25.33;17.73;;;9.30;99.90;;;;;;5007973;28;20503;-81
2022/03/20 10:37:49;;;;;;;21.00;17.20;;;9.30;99.90;;;;;;5007047;28;20425;-81
2022/03/20 10:40:19;;;;;;;24.73;17.50;;;9.10;99.90;;;;;;5006770;28;20441;-80
2022/03/20 10:43:09;;;;;;;21.80;17.10;;;9.40;99.90;;;;;;5007561;28;20433;-80
2022/03/20 10:45:59;;;;;;;19.23;15.80;;;9.50;99.90;;;;;;5008756;28;20441;-81
2022/03/20 10:48:34;;;;;;;21.37;14.43;;;9.80;99.90;;;;;;5010352;28;20442;-80
2022/03/20 10:51:01;;;;;;;23.50;15.57;;;9.80;99.90;;;;;;5006502;28;20449;-80
2022/03/20 10:53:27;;;;;;;27.63;16.87;;;9.90;99.90;;;;;;5004797;28;20486;-81
2022/03/20 10:55:58;;;;;;;21.97;14.30;;;9.70;99.90;;;;;;5003138;28;20840;-80
2022/03/20 10:58:26;;;;;;;22.00;14.03;;;9.80;99.90;;;;;;5001141;28;20421;-80
2022/03/20 11:07:52;;;;;;;17.90;13.97;;;10.00;99.90;;;;;;5014259;28;20440;-78
2022/03/20 11:16:39;;;;;;;16.40;14.07;;;10.10;99.90;;;;;;4895206;29;20543;-79
2022/03/20 11:19:10;;;;;;;20.40;14.90;;;10.40;10.40;;;;;;5010951;28;20459;-80
2022/03/20 11:21:40;;;;;;;20.50;13.97;;;10.20;99.90;;;;;;5007089;28;20413;-82
2022/03/20 11:24:07;;;;;;;19.30;15.20;;;10.20;99.90;;;;;;5004720;28;20427;-81
2022/03/20 11:26:39;;;;;;;25.00;17.23;;;10.30;99.90;;;;;;5006167;28;20438;-80
2022/03/20 11:29:16;;;;;;;19.67;14.43;;;10.40;99.90;;;;;;5007473;28;20411;-82
2022/03/20 11:34:28;;;;;;;21.30;14.90;;;10.40;99.90;;;;;;5003877;28;20479;-81
2022/03/20 11:37:06;;;;;;;21.57;14.20;;;10.40;99.90;;;;;;5007265;28;20453;-80
2022/03/20 11:39:37;;;;;;;22.87;16.63;;;10.70;1.00;;;;;;5004252;28;20832;-81
2022/03/20 11:42:27;;;;;;;20.07;15.57;;;10.70;1.00;;;;;;5003380;28;20430;-80
2022/03/20 11:45:14;;;;;;;18.97;14.73;;;10.60;1.00;;;;;;5003712;28;20490;-81
2022/03/20 11:47:44;;;;;;;24.00;16.50;;;10.60;1.00;;;;;;5004584;28;20394;-81
2022/03/20 11:50:14;;;;;;;21.13;15.47;;;10.60;54.30;;;;;;5005801;28;20509;-80
2022/03/20 11:52:46;;;;;;;18.20;16.07;;;10.70;1.00;;;;;;5004155;28;20550;-81
2022/03/20 11:55:29;;;;;;;20.37;14.77;;;10.70;1.00;;;;;;5013577;28;20402;-79
2022/03/20 11:57:59;;;;;;;21.87;16.53;;;10.70;1.00;;;;;;5006880;28;20987;-79
2022/03/20 12:00:29;;;;;;;17.23;13.83;;;10.80;1.00;;;;;;5007410;28;20451;-78
2022/03/20 12:03:39;;;;;;;18.87;14.90;;;11.10;1.00;;;;;;5008083;28;20475;-78
2022/03/20 12:06:23;;;;;;;25.30;16.43;;;11.40;1.00;;;;;;4969832;28;1018718;-81
2022/03/20 12:09:02;;;;;;;22.10;15.63;;;11.20;99.90;;;;;;5009396;28;20189;-79
2022/03/20 12:11:42;;;;;;;18.27;14.80;;;11.10;99.90;;;;;;5005013;28;20468;-83
2022/03/20 12:14:29;;;;;;;18.57;14.37;;;11.00;99.90;;;;;;5006056;28;20490;-79
2022/03/20 12:16:59;;;;;;;17.50;13.50;;;11.20;99.90;;;;;;5005524;28;20419;-79
2022/03/20 12:19:43;;;;;;;15.90;14.20;;;11.20;99.90;;;;;;5004129;28;20451;-80
2022/03/20 12:22:15;;;;;;;23.13;15.40;;;11.30;99.90;;;;;;5002039;28;20502;-82
2022/03/20 12:24:54;;;;;;;15.50;13.77;;;11.30;99.90;;;;;;5004231;28;20488;-82
2022/03/20 12:27:52;;;;;;;16.93;13.20;;;11.30;99.90;;;;;;5004941;28;20440;-80
2022/03/20 12:30:35;;;;;;;21.63;14.43;;;11.30;99.90;;;;;;5015548;28;20439;-80
2022/03/20 12:33:04;;;;;;;18.03;14.80;;;11.40;99.90;;;;;;5005157;28;20443;-80
2022/03/20 12:35:45;;;;;;;18.40;15.10;;;11.60;99.90;;;;;;5003929;28;20448;-81
2022/03/20 12:38:40;;;;;;;20.97;14.47;;;11.40;99.90;;;;;;5004068;28;20433;-82
2022/03/20 12:41:09;;;;;;;16.97;13.33;;;11.80;99.90;;;;;;5005893;28;20472;-82
2022/03/20 12:43:36;;;;;;;16.50;13.70;;;11.90;99.90;;;;;;5006029;28;20854;-81
2022/03/20 12:46:03;;;;;;;20.20;14.90;;;11.60;1.00;;;;;;5004617;28;20444;-82
2022/03/20 12:48:32;;;;;;;18.53;13.77;;;11.80;99.90;;;;;;5005934;28;20449;-82
2022/03/20 12:51:06;;;;;;;17.40;13.50;;;11.80;99.90;;;;;;5005131;28;20507;-83
2022/03/20 12:53:38;;;;;;;20.53;13.20;;;11.80;99.90;;;;;;5005912;28;20468;-82
2022/03/20 12:56:07;;;;;;;19.80;15.77;;;12.00;99.90;;;;;;5004333;28;20399;-81
2022/03/20 12:58:34;;;;;;;30.80;15.90;;;12.00;99.90;;;;;;5004217;28;20532;-80
2022/03/20 13:01:07;;;;;;;15.03;13.43;;;12.10;99.90;;;;;;5005329;28;20490;-80
2022/03/20 13:03:33;;;;;;;20.10;14.43;;;12.10;99.90;;;;;;5004638;28;20466;-79
2022/03/20 13:06:03;;;;;;;15.90;12.60;;;12.10;99.90;;;;;;5004154;28;20452;-82
2022/03/20 13:08:31;;;;;;;22.70;13.30;;;12.00;99.90;;;;;;5007270;28;20464;-82
2022/03/20 13:11:00;;;;;;;16.07;13.30;;;12.00;99.90;;;;;;5007041;28;20460;-82
2022/03/20 13:13:28;;;;;;;17.80;12.83;;;12.00;99.90;;;;;;5006668;28;20480;-80
2022/03/20 13:15:55;;;;;;;14.53;11.80;;;12.00;99.90;;;;;;5004083;28;20425;-82
2022/03/20 13:18:24;;;;;;;17.57;13.30;;;11.90;99.90;;;;;;5013997;28;20422;-82
2022/03/20 13:20:51;;;;;;;17.67;13.07;;;11.60;99.90;;;;;;5016481;28;20439;-82
2022/03/20 13:23:21;;;;;;;14.13;12.50;;;11.80;99.90;;;;;;5017768;28;20453;-83
2022/03/20 13:25:51;;;;;;;17.30;13.60;;;11.80;1.00;;;;;;5018767;28;20474;-82
2022/03/20 13:28:23;;;;;;;16.27;13.27;;;11.90;99.90;;;;;;5018928;28;20425;-82
2022/03/20 13:30:50;;;;;;;15.50;12.20;;;12.00;99.90;;;;;;5018704;28;20431;-80
2022/03/20 13:33:28;;;;;;;17.23;13.63;;;12.00;99.90;;;;;;5018282;28;20476;-80
2022/03/20 13:35:55;;;;;;;16.03;13.50;;;12.00;99.90;;;;;;5017254;28;20395;-81
2022/03/20 13:38:23;;;;;;;18.13;13.50;;;11.90;99.90;;;;;;5008875;28;20423;-83